sensor_id;sensor_type;location;lat;lon;timestamp;P1;durP1;ratioP1;P2;durP2;ratioP2
43337;SDS011;28933;52.492;13.434;2023-05-15T00:01:25;11.48;;;6.90;;
43337;SDS011;28933;52.492;13.434;2023-05-15T00:03:51;9.30;;;7.22;;
43337;SDS011;28933;52.492;13.434;2023-05-15T00:06:18;10.10;;;6.97;;
43337;SDS011;28933;52.492;13.434;2023-05-15T00:08:44;9.88;;;6.70;;
43337;SDS011;28933;52.492;13.434;2023-05-15T00:11:10;10.90;;;7.47;;
43337;SDS011;28933;52.492;13.434;2023-05-15T00:13:36;10.90;;;7.30;;
43337;SDS011;28933;52.492;13.434;2023-05-15T00:16:03;11.77;;;8.65;;
43337;SDS011;28933;52.492;13.434;2023-05-15T00:18:30;8.45;;;7.07;;
43337;SDS011;28933;52.492;13.434;2023-05-15T00:20:55;9.82;;;7.50;;
43337;SDS011;28933;52.492;13.434;2023-05-15T00:23:21;11.15;;;7.43;;
43337;SDS011;28933;52.492;13.434;2023-05-15T00:25:47;11.45;;;7.82;;
43337;SDS011;28933;52.492;13.434;2023-05-15T00:28:12;11.82;;;7.70;;
43337;SDS011;28933;52.492;13.434;2023-05-15T00:30:38;13.38;;;8.38;;
43337;SDS011;28933;52.492;13.434;2023-05-15T00:33:03;12.13;;;8.18;;
43337;SDS011;28933;52.492;13.434;2023-05-15T00:35:29;12.48;;;8.30;;
43337;SDS011;28933;52.492;13.434;2023-05-15T00:37:56;8.50;;;7.03;;
43337;SDS011;28933;52.492;13.434;2023-05-15T00:40:22;10.13;;;7.78;;
43337;SDS011;28933;52.492;13.434;2023-05-15T00:42:49;10.63;;;7.63;;
43337;SDS011;28933;52.492;13.434;2023-05-15T00:45:16;10.50;;;8.52;;
43337;SDS011;28933;52.492;13.434;2023-05-15T00:47:43;11.77;;;7.88;;
43337;SDS011;28933;52.492;13.434;2023-05-15T00:50:10;11.02;;;8.00;;
43337;SDS011;28933;52.492;13.434;2023-05-15T00:52:36;10.32;;;7.60;;
43337;SDS011;28933;52.492;13.434;2023-05-15T00:55:02;10.05;;;7.82;;
43337;SDS011;28933;52.492;13.434;2023-05-15T00:57:29;11.02;;;8.38;;
43337;SDS011;28933;52.492;13.434;2023-05-15T00:59:55;11.13;;;7.70;;
43337;SDS011;28933;52.492;13.434;2023-05-15T01:02:21;9.52;;;7.68;;
43337;SDS011;28933;52.492;13.434;2023-05-15T01:04:47;10.73;;;8.40;;
43337;SDS011;28933;52.492;13.434;2023-05-15T01:07:14;11.15;;;8.15;;
43337;SDS011;28933;52.492;13.434;2023-05-15T01:09:42;14.55;;;7.82;;
43337;SDS011;28933;52.492;13.434;2023-05-15T01:12:09;11.07;;;8.88;;
43337;SDS011;28933;52.492;13.434;2023-05-15T01:14:37;12.18;;;8.55;;
43337;SDS011;28933;52.492;13.434;2023-05-15T01:17:02;12.88;;;8.93;;
43337;SDS011;28933;52.492;13.434;2023-05-15T01:19:29;13.50;;;8.50;;
43337;SDS011;28933;52.492;13.434;2023-05-15T01:25:11;10.52;;;8.50;;
43337;SDS011;28933;52.492;13.434;2023-05-15T01:27:41;11.85;;;9.00;;
43337;SDS011;28933;52.492;13.434;2023-05-15T01:35:45;13.27;;;8.98;;
43337;SDS011;28933;52.492;13.434;2023-05-15T01:38:52;11.45;;;8.68;;
43337;SDS011;28933;52.492;13.434;2023-05-15T01:41:40;15.63;;;9.70;;
43337;SDS011;28933;52.492;13.434;2023-05-15T01:44:12;14.55;;;9.57;;
43337;SDS011;28933;52.492;13.434;2023-05-15T01:46:43;12.30;;;9.23;;
43337;SDS011;28933;52.492;13.434;2023-05-15T01:49:14;13.77;;;9.13;;
43337;SDS011;28933;52.492;13.434;2023-05-15T01:51:43;10.77;;;8.73;;
43337;SDS011;28933;52.492;13.434;2023-05-15T01:54:11;12.82;;;9.32;;
43337;SDS011;28933;52.492;13.434;2023-05-15T01:56:41;11.95;;;9.38;;
43337;SDS011;28933;52.492;13.434;2023-05-15T01:59:09;11.27;;;8.77;;
43337;SDS011;28933;52.492;13.434;2023-05-15T02:01:37;10.95;;;8.65;;
43337;SDS011;28933;52.492;13.434;2023-05-15T02:04:05;11.95;;;8.98;;
43337;SDS011;28933;52.492;13.434;2023-05-15T02:06:32;11.60;;;9.25;;
43337;SDS011;28933;52.492;13.434;2023-05-15T02:09:00;11.30;;;9.80;;
43337;SDS011;28933;52.492;13.434;2023-05-15T02:11:27;14.02;;;9.70;;
43337;SDS011;28933;52.492;13.434;2023-05-15T02:13:54;11.98;;;9.25;;
43337;SDS011;28933;52.492;13.434;2023-05-15T02:16:21;10.90;;;9.60;;
43337;SDS011;28933;52.492;13.434;2023-05-15T02:18:47;10.15;;;9.07;;
43337;SDS011;28933;52.492;13.434;2023-05-15T02:21:13;12.30;;;8.63;;
43337;SDS011;28933;52.492;13.434;2023-05-15T02:23:39;13.65;;;9.30;;
43337;SDS011;28933;52.492;13.434;2023-05-15T02:29:03;9.57;;;8.50;;
43337;SDS011;28933;52.492;13.434;2023-05-15T02:31:58;11.38;;;8.68;;
43337;SDS011;28933;52.492;13.434;2023-05-15T02:37:21;10.00;;;8.43;;
43337;SDS011;28933;52.492;13.434;2023-05-15T02:39:52;12.23;;;9.27;;
43337;SDS011;28933;52.492;13.434;2023-05-15T02:42:19;12.40;;;10.02;;
43337;SDS011;28933;52.492;13.434;2023-05-15T02:44:46;13.65;;;10.15;;
43337;SDS011;28933;52.492;13.434;2023-05-15T02:47:13;15.50;;;8.70;;
43337;SDS011;28933;52.492;13.434;2023-05-15T02:49:39;11.57;;;9.60;;
43337;SDS011;28933;52.492;13.434;2023-05-15T02:52:05;12.73;;;8.82;;
43337;SDS011;28933;52.492;13.434;2023-05-15T02:54:31;11.10;;;9.13;;
43337;SDS011;28933;52.492;13.434;2023-05-15T02:56:57;10.57;;;9.48;;
43337;SDS011;28933;52.492;13.434;2023-05-15T02:59:22;11.48;;;9.55;;
43337;SDS011;28933;52.492;13.434;2023-05-15T03:01:48;12.60;;;9.18;;
43337;SDS011;28933;52.492;13.434;2023-05-15T03:04:14;12.35;;;9.93;;
43337;SDS011;28933;52.492;13.434;2023-05-15T03:06:40;12.70;;;9.73;;
43337;SDS011;28933;52.492;13.434;2023-05-15T03:09:06;12.50;;;9.27;;
43337;SDS011;28933;52.492;13.434;2023-05-15T03:11:32;12.75;;;9.30;;
43337;SDS011;28933;52.492;13.434;2023-05-15T03:13:57;12.70;;;9.13;;
43337;SDS011;28933;52.492;13.434;2023-05-15T03:16:24;11.80;;;8.77;;
43337;SDS011;28933;52.492;13.434;2023-05-15T03:18:50;11.73;;;9.90;;
43337;SDS011;28933;52.492;13.434;2023-05-15T03:21:17;13.35;;;9.43;;
43337;SDS011;28933;52.492;13.434;2023-05-15T03:23:43;12.60;;;9.45;;
43337;SDS011;28933;52.492;13.434;2023-05-15T03:26:08;10.95;;;8.95;;
43337;SDS011;28933;52.492;13.434;2023-05-15T03:28:34;11.95;;;9.45;;
43337;SDS011;28933;52.492;13.434;2023-05-15T03:31:00;11.85;;;9.13;;
43337;SDS011;28933;52.492;13.434;2023-05-15T03:33:26;13.10;;;9.68;;
43337;SDS011;28933;52.492;13.434;2023-05-15T03:35:51;11.57;;;9.32;;
43337;SDS011;28933;52.492;13.434;2023-05-15T03:38:17;12.00;;;9.18;;
43337;SDS011;28933;52.492;13.434;2023-05-15T03:40:43;12.90;;;9.98;;
43337;SDS011;28933;52.492;13.434;2023-05-15T03:43:09;11.27;;;9.07;;
43337;SDS011;28933;52.492;13.434;2023-05-15T03:45:35;11.82;;;9.57;;
43337;SDS011;28933;52.492;13.434;2023-05-15T03:48:01;11.65;;;9.45;;
43337;SDS011;28933;52.492;13.434;2023-05-15T03:50:26;11.10;;;9.80;;
43337;SDS011;28933;52.492;13.434;2023-05-15T03:52:52;10.77;;;9.23;;
43337;SDS011;28933;52.492;13.434;2023-05-15T03:55:18;11.52;;;9.45;;
43337;SDS011;28933;52.492;13.434;2023-05-15T03:57:43;13.55;;;10.05;;
43337;SDS011;28933;52.492;13.434;2023-05-15T04:00:09;11.52;;;8.98;;
43337;SDS011;28933;52.492;13.434;2023-05-15T04:02:36;12.68;;;9.57;;
43337;SDS011;28933;52.492;13.434;2023-05-15T04:05:05;14.82;;;10.15;;
43337;SDS011;28933;52.492;13.434;2023-05-15T04:07:31;12.10;;;9.70;;
43337;SDS011;28933;52.492;13.434;2023-05-15T04:09:58;11.55;;;9.82;;
43337;SDS011;28933;52.492;13.434;2023-05-15T04:12:26;11.93;;;10.02;;
43337;SDS011;28933;52.492;13.434;2023-05-15T04:14:54;11.15;;;9.80;;
43337;SDS011;28933;52.492;13.434;2023-05-15T04:17:20;12.90;;;9.75;;
43337;SDS011;28933;52.492;13.434;2023-05-15T04:19:46;12.50;;;9.88;;
43337;SDS011;28933;52.492;13.434;2023-05-15T04:22:12;11.05;;;9.02;;
43337;SDS011;28933;52.492;13.434;2023-05-15T04:24:37;12.40;;;9.93;;
43337;SDS011;28933;52.492;13.434;2023-05-15T04:27:03;12.23;;;8.35;;
43337;SDS011;28933;52.492;13.434;2023-05-15T04:29:29;14.23;;;9.85;;
43337;SDS011;28933;52.492;13.434;2023-05-15T04:31:54;13.27;;;10.43;;
43337;SDS011;28933;52.492;13.434;2023-05-15T04:34:20;14.65;;;9.90;;
43337;SDS011;28933;52.492;13.434;2023-05-15T04:36:46;12.35;;;9.63;;
43337;SDS011;28933;52.492;13.434;2023-05-15T04:39:13;13.25;;;9.77;;
43337;SDS011;28933;52.492;13.434;2023-05-15T04:41:39;18.55;;;10.13;;
43337;SDS011;28933;52.492;13.434;2023-05-15T04:44:04;10.65;;;9.13;;
43337;SDS011;28933;52.492;13.434;2023-05-15T04:46:30;14.07;;;10.27;;
43337;SDS011;28933;52.492;13.434;2023-05-15T04:48:58;13.93;;;9.30;;
43337;SDS011;28933;52.492;13.434;2023-05-15T04:51:24;11.23;;;8.60;;
43337;SDS011;28933;52.492;13.434;2023-05-15T04:53:50;13.10;;;8.73;;
43337;SDS011;28933;52.492;13.434;2023-05-15T04:56:15;13.35;;;10.07;;
43337;SDS011;28933;52.492;13.434;2023-05-15T04:58:41;12.65;;;9.15;;
43337;SDS011;28933;52.492;13.434;2023-05-15T05:01:07;11.43;;;8.82;;
43337;SDS011;28933;52.492;13.434;2023-05-15T05:03:32;13.07;;;9.10;;
43337;SDS011;28933;52.492;13.434;2023-05-15T05:05:59;11.40;;;8.98;;
43337;SDS011;28933;52.492;13.434;2023-05-15T05:08:24;12.55;;;9.00;;
43337;SDS011;28933;52.492;13.434;2023-05-15T05:10:54;10.75;;;8.77;;
43337;SDS011;28933;52.492;13.434;2023-05-15T05:13:22;12.80;;;9.10;;
43337;SDS011;28933;52.492;13.434;2023-05-15T05:15:48;15.23;;;9.10;;
43337;SDS011;28933;52.492;13.434;2023-05-15T05:18:13;13.20;;;9.65;;
43337;SDS011;28933;52.492;13.434;2023-05-15T05:20:39;16.98;;;8.80;;
43337;SDS011;28933;52.492;13.434;2023-05-15T05:23:04;12.38;;;8.90;;
43337;SDS011;28933;52.492;13.434;2023-05-15T05:25:30;9.25;;;7.78;;
43337;SDS011;28933;52.492;13.434;2023-05-15T05:27:56;12.30;;;8.50;;
43337;SDS011;28933;52.492;13.434;2023-05-15T05:30:21;11.00;;;8.77;;
43337;SDS011;28933;52.492;13.434;2023-05-15T05:32:47;11.85;;;7.50;;
43337;SDS011;28933;52.492;13.434;2023-05-15T05:35:12;13.70;;;7.75;;
43337;SDS011;28933;52.492;13.434;2023-05-15T05:37:38;10.98;;;7.75;;
43337;SDS011;28933;52.492;13.434;2023-05-15T05:40:04;13.73;;;7.97;;
43337;SDS011;28933;52.492;13.434;2023-05-15T05:42:30;13.90;;;8.13;;
43337;SDS011;28933;52.492;13.434;2023-05-15T05:44:56;10.98;;;7.90;;
43337;SDS011;28933;52.492;13.434;2023-05-15T05:47:22;11.88;;;8.25;;
43337;SDS011;28933;52.492;13.434;2023-05-15T05:49:47;14.50;;;8.60;;
43337;SDS011;28933;52.492;13.434;2023-05-15T05:52:13;10.05;;;7.50;;
43337;SDS011;28933;52.492;13.434;2023-05-15T05:54:40;11.15;;;7.43;;
43337;SDS011;28933;52.492;13.434;2023-05-15T05:57:06;10.98;;;7.50;;
43337;SDS011;28933;52.492;13.434;2023-05-15T05:59:33;12.48;;;7.63;;
43337;SDS011;28933;52.492;13.434;2023-05-15T06:01:59;10.70;;;7.13;;
43337;SDS011;28933;52.492;13.434;2023-05-15T06:04:24;8.48;;;6.60;;
43337;SDS011;28933;52.492;13.434;2023-05-15T06:06:50;7.70;;;6.45;;
43337;SDS011;28933;52.492;13.434;2023-05-15T06:09:16;9.50;;;6.60;;
43337;SDS011;28933;52.492;13.434;2023-05-15T06:11:42;10.35;;;6.82;;
43337;SDS011;28933;52.492;13.434;2023-05-15T06:14:07;12.70;;;6.97;;
43337;SDS011;28933;52.492;13.434;2023-05-15T06:16:33;8.60;;;5.95;;
43337;SDS011;28933;52.492;13.434;2023-05-15T06:18:59;14.25;;;6.78;;
43337;SDS011;28933;52.492;13.434;2023-05-15T06:21:25;10.38;;;6.90;;
43337;SDS011;28933;52.492;13.434;2023-05-15T06:23:50;9.43;;;6.65;;
43337;SDS011;28933;52.492;13.434;2023-05-15T06:26:16;9.65;;;7.60;;
43337;SDS011;28933;52.492;13.434;2023-05-15T06:28:41;10.57;;;7.00;;
43337;SDS011;28933;52.492;13.434;2023-05-15T06:31:07;9.38;;;6.68;;
43337;SDS011;28933;52.492;13.434;2023-05-15T06:33:33;13.55;;;7.47;;
43337;SDS011;28933;52.492;13.434;2023-05-15T06:35:58;12.45;;;7.63;;
43337;SDS011;28933;52.492;13.434;2023-05-15T06:38:24;11.10;;;7.45;;
43337;SDS011;28933;52.492;13.434;2023-05-15T06:40:50;13.98;;;6.88;;
43337;SDS011;28933;52.492;13.434;2023-05-15T06:43:16;8.88;;;5.65;;
43337;SDS011;28933;52.492;13.434;2023-05-15T06:45:41;12.90;;;7.05;;
43337;SDS011;28933;52.492;13.434;2023-05-15T06:48:07;10.18;;;6.32;;
43337;SDS011;28933;52.492;13.434;2023-05-15T06:50:32;9.25;;;6.72;;
43337;SDS011;28933;52.492;13.434;2023-05-15T06:52:58;9.18;;;5.93;;
43337;SDS011;28933;52.492;13.434;2023-05-15T06:55:24;11.77;;;6.63;;
43337;SDS011;28933;52.492;13.434;2023-05-15T06:57:49;9.43;;;5.65;;
43337;SDS011;28933;52.492;13.434;2023-05-15T07:00:15;10.00;;;6.22;;
43337;SDS011;28933;52.492;13.434;2023-05-15T07:02:41;10.23;;;7.00;;
43337;SDS011;28933;52.492;13.434;2023-05-15T07:05:07;11.02;;;6.43;;
43337;SDS011;28933;52.492;13.434;2023-05-15T07:07:34;12.02;;;6.32;;
43337;SDS011;28933;52.492;13.434;2023-05-15T07:09:59;10.07;;;5.75;;
43337;SDS011;28933;52.492;13.434;2023-05-15T07:12:25;11.52;;;6.40;;
43337;SDS011;28933;52.492;13.434;2023-05-15T07:14:51;9.70;;;5.82;;
43337;SDS011;28933;52.492;13.434;2023-05-15T07:17:16;10.00;;;5.60;;
43337;SDS011;28933;52.492;13.434;2023-05-15T07:19:43;9.52;;;6.07;;
43337;SDS011;28933;52.492;13.434;2023-05-15T07:22:08;10.70;;;6.13;;
43337;SDS011;28933;52.492;13.434;2023-05-15T07:24:34;15.27;;;7.95;;
43337;SDS011;28933;52.492;13.434;2023-05-15T07:27:00;11.45;;;6.30;;
43337;SDS011;28933;52.492;13.434;2023-05-15T07:29:25;8.32;;;6.05;;
43337;SDS011;28933;52.492;13.434;2023-05-15T07:31:51;12.30;;;6.25;;
43337;SDS011;28933;52.492;13.434;2023-05-15T07:34:17;9.30;;;6.10;;
43337;SDS011;28933;52.492;13.434;2023-05-15T07:36:43;10.13;;;6.10;;
43337;SDS011;28933;52.492;13.434;2023-05-15T07:39:09;9.13;;;6.85;;
43337;SDS011;28933;52.492;13.434;2023-05-15T07:41:34;10.40;;;6.25;;
43337;SDS011;28933;52.492;13.434;2023-05-15T07:44:00;11.35;;;6.40;;
43337;SDS011;28933;52.492;13.434;2023-05-15T07:46:26;7.78;;;5.65;;
43337;SDS011;28933;52.492;13.434;2023-05-15T07:48:51;11.25;;;6.35;;
43337;SDS011;28933;52.492;13.434;2023-05-15T07:51:17;8.60;;;5.28;;
43337;SDS011;28933;52.492;13.434;2023-05-15T07:53:43;8.77;;;6.65;;
43337;SDS011;28933;52.492;13.434;2023-05-15T07:56:08;7.53;;;5.88;;
43337;SDS011;28933;52.492;13.434;2023-05-15T07:58:34;7.28;;;5.00;;
43337;SDS011;28933;52.492;13.434;2023-05-15T08:01:02;5.97;;;4.72;;
43337;SDS011;28933;52.492;13.434;2023-05-15T08:03:28;7.25;;;5.00;;
43337;SDS011;28933;52.492;13.434;2023-05-15T08:05:54;9.15;;;4.93;;
43337;SDS011;28933;52.492;13.434;2023-05-15T08:08:19;9.32;;;4.50;;
43337;SDS011;28933;52.492;13.434;2023-05-15T08:10:45;11.52;;;4.38;;
43337;SDS011;28933;52.492;13.434;2023-05-15T08:13:11;6.50;;;4.00;;
43337;SDS011;28933;52.492;13.434;2023-05-15T08:15:37;8.05;;;4.85;;
43337;SDS011;28933;52.492;13.434;2023-05-15T08:18:09;10.93;;;4.90;;
43337;SDS011;28933;52.492;13.434;2023-05-15T08:20:36;6.63;;;4.50;;
43337;SDS011;28933;52.492;13.434;2023-05-15T08:23:02;10.73;;;4.57;;
43337;SDS011;28933;52.492;13.434;2023-05-15T08:25:27;8.82;;;4.32;;
43337;SDS011;28933;52.492;13.434;2023-05-15T08:27:54;5.68;;;3.70;;
43337;SDS011;28933;52.492;13.434;2023-05-15T08:30:20;6.97;;;4.63;;
43337;SDS011;28933;52.492;13.434;2023-05-15T08:32:45;9.23;;;3.70;;
43337;SDS011;28933;52.492;13.434;2023-05-15T08:35:12;9.45;;;5.47;;
43337;SDS011;28933;52.492;13.434;2023-05-15T08:37:38;6.03;;;4.80;;
43337;SDS011;28933;52.492;13.434;2023-05-15T08:40:04;7.35;;;4.70;;
43337;SDS011;28933;52.492;13.434;2023-05-15T08:42:34;7.38;;;3.97;;
43337;SDS011;28933;52.492;13.434;2023-05-15T08:45:02;8.30;;;4.15;;
43337;SDS011;28933;52.492;13.434;2023-05-15T08:47:28;9.98;;;4.55;;
43337;SDS011;28933;52.492;13.434;2023-05-15T08:52:38;8.23;;;4.30;;
43337;SDS011;28933;52.492;13.434;2023-05-15T08:55:15;6.28;;;3.90;;
43337;SDS011;28933;52.492;13.434;2023-05-15T08:57:42;8.45;;;4.38;;
43337;SDS011;28933;52.492;13.434;2023-05-15T09:00:09;6.75;;;4.57;;
43337;SDS011;28933;52.492;13.434;2023-05-15T09:02:38;8.40;;;4.63;;
43337;SDS011;28933;52.492;13.434;2023-05-15T09:05:05;10.70;;;4.57;;
43337;SDS011;28933;52.492;13.434;2023-05-15T09:07:32;12.32;;;4.30;;
43337;SDS011;28933;52.492;13.434;2023-05-15T09:09:58;7.05;;;4.55;;
43337;SDS011;28933;52.492;13.434;2023-05-15T09:12:25;10.80;;;5.20;;
43337;SDS011;28933;52.492;13.434;2023-05-15T09:14:53;7.43;;;4.35;;
43337;SDS011;28933;52.492;13.434;2023-05-15T09:17:40;6.38;;;4.40;;
43337;SDS011;28933;52.492;13.434;2023-05-15T09:20:10;5.80;;;3.88;;
43337;SDS011;28933;52.492;13.434;2023-05-15T09:22:52;8.70;;;4.38;;
43337;SDS011;28933;52.492;13.434;2023-05-15T09:25:38;11.85;;;4.82;;
43337;SDS011;28933;52.492;13.434;2023-05-15T09:28:06;11.52;;;4.63;;
43337;SDS011;28933;52.492;13.434;2023-05-15T09:30:36;11.27;;;5.60;;
43337;SDS011;28933;52.492;13.434;2023-05-15T09:33:02;7.38;;;4.22;;
43337;SDS011;28933;52.492;13.434;2023-05-15T09:35:35;6.90;;;4.25;;
43337;SDS011;28933;52.492;13.434;2023-05-15T09:38:03;8.18;;;4.00;;
43337;SDS011;28933;52.492;13.434;2023-05-15T09:40:32;7.85;;;4.57;;
43337;SDS011;28933;52.492;13.434;2023-05-15T09:42:58;5.45;;;3.78;;
43337;SDS011;28933;52.492;13.434;2023-05-15T09:45:24;9.30;;;3.85;;
43337;SDS011;28933;52.492;13.434;2023-05-15T09:47:51;8.48;;;4.00;;
43337;SDS011;28933;52.492;13.434;2023-05-15T09:50:21;7.28;;;4.13;;
43337;SDS011;28933;52.492;13.434;2023-05-15T09:52:49;24.88;;;6.30;;
43337;SDS011;28933;52.492;13.434;2023-05-15T09:55:16;5.50;;;4.07;;
43337;SDS011;28933;52.492;13.434;2023-05-15T09:57:44;8.07;;;4.20;;
43337;SDS011;28933;52.492;13.434;2023-05-15T10:00:28;6.50;;;3.75;;
43337;SDS011;28933;52.492;13.434;2023-05-15T10:02:56;6.13;;;3.97;;
43337;SDS011;28933;52.492;13.434;2023-05-15T10:05:27;7.38;;;4.30;;
43337;SDS011;28933;52.492;13.434;2023-05-15T10:07:54;9.23;;;4.63;;
43337;SDS011;28933;52.492;13.434;2023-05-15T10:10:21;7.93;;;4.10;;
43337;SDS011;28933;52.492;13.434;2023-05-15T10:12:48;4.35;;;3.47;;
43337;SDS011;28933;52.492;13.434;2023-05-15T10:15:15;8.98;;;4.85;;
43337;SDS011;28933;52.492;13.434;2023-05-15T10:17:41;7.30;;;3.97;;
43337;SDS011;28933;52.492;13.434;2023-05-15T10:20:08;6.50;;;4.40;;
43337;SDS011;28933;52.492;13.434;2023-05-15T10:22:38;6.85;;;4.82;;
43337;SDS011;28933;52.492;13.434;2023-05-15T10:25:09;8.48;;;4.03;;
43337;SDS011;28933;52.492;13.434;2023-05-15T10:30:09;10.68;;;4.05;;
43337;SDS011;28933;52.492;13.434;2023-05-15T10:32:35;5.40;;;3.92;;
43337;SDS011;28933;52.492;13.434;2023-05-15T10:35:03;4.43;;;3.78;;
43337;SDS011;28933;52.492;13.434;2023-05-15T10:37:29;4.80;;;3.67;;
43337;SDS011;28933;52.492;13.434;2023-05-15T10:39:55;6.50;;;4.40;;
43337;SDS011;28933;52.492;13.434;2023-05-15T10:42:23;5.80;;;3.05;;
43337;SDS011;28933;52.492;13.434;2023-05-15T10:44:51;7.30;;;4.07;;
43337;SDS011;28933;52.492;13.434;2023-05-15T10:47:23;7.18;;;3.83;;
43337;SDS011;28933;52.492;13.434;2023-05-15T10:49:50;4.97;;;3.63;;
43337;SDS011;28933;52.492;13.434;2023-05-15T10:52:16;7.53;;;3.88;;
43337;SDS011;28933;52.492;13.434;2023-05-15T10:54:41;6.80;;;3.70;;
43337;SDS011;28933;52.492;13.434;2023-05-15T10:57:07;8.35;;;4.43;;
43337;SDS011;28933;52.492;13.434;2023-05-15T10:59:33;6.32;;;3.85;;
43337;SDS011;28933;52.492;13.434;2023-05-15T11:02:18;5.95;;;4.43;;
43337;SDS011;28933;52.492;13.434;2023-05-15T11:04:54;6.10;;;3.15;;
43337;SDS011;28933;52.492;13.434;2023-05-15T11:07:21;4.93;;;3.88;;
43337;SDS011;28933;52.492;13.434;2023-05-15T11:09:48;5.05;;;3.30;;
43337;SDS011;28933;52.492;13.434;2023-05-15T11:12:14;6.40;;;3.72;;
43337;SDS011;28933;52.492;13.434;2023-05-15T11:15:17;9.68;;;3.67;;
43337;SDS011;28933;52.492;13.434;2023-05-15T11:17:36;4.80;;;3.38;;
43337;SDS011;28933;52.492;13.434;2023-05-15T11:20:02;5.78;;;3.13;;
43337;SDS011;28933;52.492;13.434;2023-05-15T11:22:32;5.38;;;3.00;;
43337;SDS011;28933;52.492;13.434;2023-05-15T11:25:03;6.50;;;3.35;;
43337;SDS011;28933;52.492;13.434;2023-05-15T11:27:40;5.20;;;3.22;;
43337;SDS011;28933;52.492;13.434;2023-05-15T11:35:12;4.75;;;2.60;;
43337;SDS011;28933;52.492;13.434;2023-05-15T11:37:44;2.80;;;2.50;;
43337;SDS011;28933;52.492;13.434;2023-05-15T11:40:27;6.03;;;3.05;;
43337;SDS011;28933;52.492;13.434;2023-05-15T11:43:36;3.67;;;2.30;;
43337;SDS011;28933;52.492;13.434;2023-05-15T11:45:51;3.92;;;1.98;;
43337;SDS011;28933;52.492;13.434;2023-05-15T11:48:22;3.20;;;2.03;;
43337;SDS011;28933;52.492;13.434;2023-05-15T11:51:03;3.20;;;2.20;;
43337;SDS011;28933;52.492;13.434;2023-05-15T11:53:30;2.85;;;2.03;;
43337;SDS011;28933;52.492;13.434;2023-05-15T11:55:57;3.90;;;2.28;;
43337;SDS011;28933;52.492;13.434;2023-05-15T11:58:23;4.35;;;2.58;;
43337;SDS011;28933;52.492;13.434;2023-05-15T12:00:50;3.10;;;2.35;;
43337;SDS011;28933;52.492;13.434;2023-05-15T12:03:32;6.68;;;2.00;;
43337;SDS011;28933;52.492;13.434;2023-05-15T12:06:00;9.30;;;2.50;;
43337;SDS011;28933;52.492;13.434;2023-05-15T12:08:33;4.13;;;2.10;;
43337;SDS011;28933;52.492;13.434;2023-05-15T12:11:01;3.78;;;2.03;;
43337;SDS011;28933;52.492;13.434;2023-05-15T12:13:28;2.80;;;1.65;;
43337;SDS011;28933;52.492;13.434;2023-05-15T12:15:54;2.72;;;1.98;;
43337;SDS011;28933;52.492;13.434;2023-05-15T12:18:20;4.07;;;2.08;;
43337;SDS011;28933;52.492;13.434;2023-05-15T12:20:46;3.47;;;2.45;;
43337;SDS011;28933;52.492;13.434;2023-05-15T12:23:14;4.57;;;2.15;;
43337;SDS011;28933;52.492;13.434;2023-05-15T12:25:40;8.63;;;2.63;;
43337;SDS011;28933;52.492;13.434;2023-05-15T12:28:08;5.68;;;1.90;;
43337;SDS011;28933;52.492;13.434;2023-05-15T12:30:35;3.50;;;1.85;;
43337;SDS011;28933;52.492;13.434;2023-05-15T12:33:03;3.47;;;1.92;;
43337;SDS011;28933;52.492;13.434;2023-05-15T12:35:40;3.05;;;2.10;;
43337;SDS011;28933;52.492;13.434;2023-05-15T12:38:07;3.30;;;2.30;;
43337;SDS011;28933;52.492;13.434;2023-05-15T12:40:33;2.97;;;1.60;;
43337;SDS011;28933;52.492;13.434;2023-05-15T12:43:04;2.45;;;1.95;;
43337;SDS011;28933;52.492;13.434;2023-05-15T12:45:31;3.80;;;1.88;;
43337;SDS011;28933;52.492;13.434;2023-05-15T12:48:01;5.10;;;1.90;;
43337;SDS011;28933;52.492;13.434;2023-05-15T12:50:27;3.38;;;1.90;;
43337;SDS011;28933;52.492;13.434;2023-05-15T12:52:56;3.35;;;2.13;;
43337;SDS011;28933;52.492;13.434;2023-05-15T12:55:25;3.10;;;2.03;;
43337;SDS011;28933;52.492;13.434;2023-05-15T12:57:54;2.72;;;1.90;;
43337;SDS011;28933;52.492;13.434;2023-05-15T13:00:24;3.20;;;1.73;;
43337;SDS011;28933;52.492;13.434;2023-05-15T13:02:53;1.88;;;1.65;;
43337;SDS011;28933;52.492;13.434;2023-05-15T13:05:23;4.00;;;1.77;;
43337;SDS011;28933;52.492;13.434;2023-05-15T13:07:50;4.32;;;2.15;;
43337;SDS011;28933;52.492;13.434;2023-05-15T13:10:19;2.83;;;2.13;;
43337;SDS011;28933;52.492;13.434;2023-05-15T13:12:48;2.22;;;1.50;;
43337;SDS011;28933;52.492;13.434;2023-05-15T13:15:23;3.08;;;1.42;;
43337;SDS011;28933;52.492;13.434;2023-05-15T13:18:32;2.80;;;2.00;;
43337;SDS011;28933;52.492;13.434;2023-05-15T13:20:44;2.88;;;2.03;;
43337;SDS011;28933;52.492;13.434;2023-05-15T13:23:12;3.35;;;2.10;;
43337;SDS011;28933;52.492;13.434;2023-05-15T13:25:40;4.53;;;2.40;;
43337;SDS011;28933;52.492;13.434;2023-05-15T13:28:06;3.53;;;2.00;;
43337;SDS011;28933;52.492;13.434;2023-05-15T13:30:34;3.13;;;2.30;;
43337;SDS011;28933;52.492;13.434;2023-05-15T13:33:03;4.53;;;2.83;;
43337;SDS011;28933;52.492;13.434;2023-05-15T13:35:28;6.78;;;2.55;;
43337;SDS011;28933;52.492;13.434;2023-05-15T13:37:55;4.50;;;2.38;;
43337;SDS011;28933;52.492;13.434;2023-05-15T13:40:21;6.55;;;2.40;;
43337;SDS011;28933;52.492;13.434;2023-05-15T13:42:47;5.88;;;1.90;;
43337;SDS011;28933;52.492;13.434;2023-05-15T13:45:14;10.25;;;2.00;;
43337;SDS011;28933;52.492;13.434;2023-05-15T13:47:40;4.35;;;1.63;;
43337;SDS011;28933;52.492;13.434;2023-05-15T13:50:06;3.67;;;1.83;;
43337;SDS011;28933;52.492;13.434;2023-05-15T13:52:37;2.65;;;1.70;;
43337;SDS011;28933;52.492;13.434;2023-05-15T13:55:04;2.83;;;1.35;;
43337;SDS011;28933;52.492;13.434;2023-05-15T13:57:30;2.42;;;1.40;;
43337;SDS011;28933;52.492;13.434;2023-05-15T13:59:56;6.07;;;2.17;;
43337;SDS011;28933;52.492;13.434;2023-05-15T14:02:22;3.95;;;1.85;;
43337;SDS011;28933;52.492;13.434;2023-05-15T14:04:51;4.13;;;2.20;;
43337;SDS011;28933;52.492;13.434;2023-05-15T14:07:17;3.60;;;1.90;;
43337;SDS011;28933;52.492;13.434;2023-05-15T14:09:46;3.10;;;2.10;;
43337;SDS011;28933;52.492;13.434;2023-05-15T14:12:11;2.97;;;1.80;;
43337;SDS011;28933;52.492;13.434;2023-05-15T14:14:37;2.10;;;1.70;;
43337;SDS011;28933;52.492;13.434;2023-05-15T14:17:03;3.58;;;2.00;;
43337;SDS011;28933;52.492;13.434;2023-05-15T14:19:28;3.42;;;2.53;;
43337;SDS011;28933;52.492;13.434;2023-05-15T14:21:54;3.25;;;2.30;;
43337;SDS011;28933;52.492;13.434;2023-05-15T14:24:20;3.55;;;2.38;;
43337;SDS011;28933;52.492;13.434;2023-05-15T14:26:45;2.90;;;2.30;;
43337;SDS011;28933;52.492;13.434;2023-05-15T14:29:11;3.28;;;2.00;;
43337;SDS011;28933;52.492;13.434;2023-05-15T14:31:36;4.13;;;2.55;;
43337;SDS011;28933;52.492;13.434;2023-05-15T14:34:02;3.20;;;2.08;;
43337;SDS011;28933;52.492;13.434;2023-05-15T14:36:29;4.15;;;3.03;;
43337;SDS011;28933;52.492;13.434;2023-05-15T14:38:55;3.40;;;2.22;;
43337;SDS011;28933;52.492;13.434;2023-05-15T14:41:21;3.95;;;2.33;;
43337;SDS011;28933;52.492;13.434;2023-05-15T14:43:46;3.85;;;2.50;;
43337;SDS011;28933;52.492;13.434;2023-05-15T14:46:12;5.45;;;2.60;;
43337;SDS011;28933;52.492;13.434;2023-05-15T14:48:37;3.83;;;2.28;;
43337;SDS011;28933;52.492;13.434;2023-05-15T14:51:03;3.85;;;2.78;;
43337;SDS011;28933;52.492;13.434;2023-05-15T14:53:29;3.42;;;2.58;;
43337;SDS011;28933;52.492;13.434;2023-05-15T14:55:55;4.90;;;2.42;;